R44 EFKU-EFKU

Flight info

Callsign R44
Flight time 0h 21m
Altitude 1500
Route TC
Aircraft HAWK/M-SDGIRY/C

Departure

Time 2026-05-07 14:40
Airport Kuopio Airport (EFKU)

Arrival

Time 2026-05-07 15:02
Airport Kuopio Airport (EFKU)
Time Latitude Longitude Altitude Speed Heading
2026-05-07 14:29 63.00314 27.79146 314 ft 0 kts 66°
2026-05-07 14:37 63.00317 27.79159 314 ft 7 kts 58°
2026-05-07 14:38 63.00356 27.79150 315 ft 15 kts 335°
2026-05-07 14:38 63.00439 27.79079 316 ft 11 kts 341°
2026-05-07 14:38 63.00501 27.79114 316 ft 10 kts 36°
2026-05-07 14:38 63.00591 27.79257 316 ft 21 kts 35°
2026-05-07 14:39 63.00673 27.79537 318 ft 21 kts 67°
2026-05-07 14:39 63.00682 27.79804 316 ft 18 kts 148°
2026-05-07 14:39 63.00669 27.79818 315 ft 1 kts 156°
2026-05-07 14:39 63.00338 27.80123 305 ft 112 kts 158°
2026-05-07 14:40 62.99290 27.81062 732 ft 196 kts 159°
2026-05-07 14:40 62.97846 27.82368 1917 ft 248 kts 145°
2026-05-07 14:40 62.97589 27.85489 3079 ft 214 kts 52°
2026-05-07 14:40 62.98915 27.86318 2273 ft 232 kts 347°
2026-05-07 14:41 62.99779 27.85969 1646 ft 240 kts 348°
2026-05-07 14:41 63.01385 27.85365 1321 ft 218 kts 349°
2026-05-07 14:41 63.02706 27.84915 1621 ft 174 kts 342°
2026-05-07 14:41 63.03320 27.84489 1665 ft 169 kts 339°
2026-05-07 14:42 63.04468 27.83759 1598 ft 166 kts 329°
2026-05-07 14:42 63.04856 27.82473 1752 ft 157 kts 265°
2026-05-07 14:42 63.04238 27.80292 1576 ft 187 kts 226°
2026-05-07 14:42 63.03938 27.79616 1405 ft 182 kts 226°
2026-05-07 14:43 63.02904 27.78394 813 ft 167 kts 189°
2026-05-07 14:43 63.01772 27.78776 346 ft 168 kts 156°
2026-05-07 14:43 63.00788 27.79703 363 ft 144 kts 157°
2026-05-07 14:43 62.99770 27.80659 1112 ft 191 kts 158°
2026-05-07 14:44 62.98342 27.81966 1851 ft 228 kts 159°
2026-05-07 14:44 62.97748 27.84623 2427 ft 218 kts 58°
2026-05-07 14:44 62.99124 27.85409 1564 ft 233 kts 335°
2026-05-07 14:44 63.00581 27.83874 1311 ft 225 kts 332°
2026-05-07 14:45 63.01985 27.82465 1229 ft 219 kts 333°
2026-05-07 14:45 63.03351 27.81202 1239 ft 200 kts 336°
2026-05-07 14:45 63.04456 27.79846 1302 ft 163 kts 301°
2026-05-07 14:45 63.04308 27.77629 1380 ft 169 kts 218°
2026-05-07 14:46 63.03170 27.77289 866 ft 174 kts 159°
2026-05-07 14:46 63.02105 27.78484 405 ft 170 kts 155°
2026-05-07 14:46 63.01089 27.79429 348 ft 141 kts 159°
2026-05-07 14:46 63.00062 27.80357 922 ft 191 kts 158°
2026-05-07 14:47 62.98697 27.81609 1895 ft 213 kts 160°
2026-05-07 14:47 62.97630 27.80514 2595 ft 198 kts 258°
2026-05-07 14:47 62.98137 27.77691 2181 ft 216 kts 319°
2026-05-07 14:47 62.99520 27.76233 1624 ft 217 kts 336°
2026-05-07 14:48 63.00878 27.75078 1348 ft 204 kts 336°
2026-05-07 14:48 63.02132 27.74003 1266 ft 188 kts 337°
2026-05-07 14:48 63.03303 27.73233 1675 ft 155 kts
2026-05-07 14:48 63.03661 27.75347 1445 ft 196 kts 113°
2026-05-07 14:49 63.02872 27.77569 782 ft 173 kts 143°
2026-05-07 14:49 63.01853 27.78736 355 ft 156 kts 159°
2026-05-07 14:49 63.00926 27.79577 427 ft 150 kts 158°
2026-05-07 14:49 62.99802 27.80508 1383 ft 206 kts 162°
2026-05-07 14:50 62.98274 27.81517 2771 ft 214 kts 182°
2026-05-07 14:50 62.97515 27.79470 2258 ft 216 kts 292°
2026-05-07 14:50 62.98886 27.77988 1068 ft 207 kts 342°
2026-05-07 14:50 63.00164 27.77123 1071 ft 173 kts 334°
2026-05-07 14:51 63.01247 27.76052 733 ft 175 kts 345°
2026-05-07 14:51 63.02372 27.75464 953 ft 148 kts 346°
2026-05-07 14:51 63.03299 27.75943 1159 ft 169 kts 68°
2026-05-07 14:51 63.02738 27.77909 703 ft 179 kts 153°
2026-05-07 14:52 63.01699 27.78865 340 ft 150 kts 157°
2026-05-07 14:52 63.00809 27.79678 460 ft 146 kts 158°
2026-05-07 14:52 62.99643 27.80719 1263 ft 206 kts 161°
2026-05-07 14:52 62.98282 27.81900 1894 ft 207 kts 161°
2026-05-07 14:53 62.96982 27.82944 2179 ft 202 kts 163°
2026-05-07 14:53 62.95749 27.84109 2444 ft 191 kts 123°
2026-05-07 14:53 62.96483 27.85652 1576 ft 230 kts 334°
2026-05-07 14:53 62.97905 27.84410 1459 ft 208 kts 337°
2026-05-07 14:54 62.99154 27.83387 1455 ft 179 kts 338°
2026-05-07 14:54 63.00306 27.82451 1115 ft 167 kts 335°
2026-05-07 14:54 63.01352 27.81540 836 ft 156 kts 336°
2026-05-07 14:54 63.02312 27.80673 655 ft 135 kts 337°
2026-05-07 14:55 63.03196 27.79860 691 ft 145 kts 336°
2026-05-07 14:55 63.03466 27.78091 819 ft 173 kts 210°
2026-05-07 14:55 63.02332 27.78397 528 ft 152 kts 166°
2026-05-07 14:55 63.01428 27.79108 326 ft 125 kts 157°
2026-05-07 14:56 63.00542 27.79936 366 ft 168 kts 158°
2026-05-07 14:56 62.99350 27.80987 1136 ft 197 kts 160°
2026-05-07 14:56 62.97958 27.82181 1888 ft 229 kts 161°
2026-05-07 14:56 62.96569 27.83274 2094 ft 186 kts 164°
2026-05-07 14:57 62.95423 27.83368 2574 ft 181 kts 248°
2026-05-07 14:57 62.96468 27.81417 1918 ft 249 kts 335°
2026-05-07 14:57 62.98001 27.80037 1511 ft 230 kts 336°
2026-05-07 14:57 62.99476 27.78679 833 ft 219 kts 337°
2026-05-07 14:58 63.00796 27.77486 802 ft 191 kts 335°
2026-05-07 14:58 63.01901 27.76375 848 ft 151 kts 334°
2026-05-07 14:58 63.02862 27.76327 784 ft 150 kts 55°
2026-05-07 14:58 63.02440 27.78134 547 ft 175 kts 150°
2026-05-07 14:59 63.01451 27.79098 326 ft 137 kts 158°
2026-05-07 14:59 63.00481 27.79986 832 ft 172 kts 158°
2026-05-07 14:59 62.99102 27.81186 1632 ft 231 kts 154°
2026-05-07 14:59 62.98436 27.84130 2240 ft 228 kts 83°
2026-05-07 15:00 62.99319 27.87000 2302 ft 235 kts 30°
2026-05-07 15:00 63.00824 27.87622 2372 ft 213 kts 345°
2026-05-07 15:00 63.02138 27.86196 2104 ft 219 kts 328°
2026-05-07 15:00 63.03465 27.84375 1824 ft 212 kts 311°
2026-05-07 15:01 63.03880 27.81780 1687 ft 163 kts 259°
2026-05-07 15:01 63.03287 27.79783 1067 ft 152 kts 226°
2026-05-07 15:01 63.02451 27.78610 584 ft 151 kts 188°
2026-05-07 15:01 63.01421 27.79125 327 ft 144 kts 156°
2026-05-07 15:02 63.00725 27.79766 318 ft 43 kts 157°
2026-05-07 15:02 63.00522 27.79957 309 ft 34 kts 157°
2026-05-07 15:02 63.00233 27.80209 306 ft 45 kts 161°
2026-05-07 15:02 63.00147 27.80298 307 ft 3 kts 277°
2026-05-07 15:03 63.00086 27.80248 308 ft 23 kts 185°
2026-05-07 15:03 62.99965 27.80154 316 ft 15 kts 241°
2026-05-07 15:03 63.00035 27.79951 317 ft 21 kts 338°
2026-05-07 15:03 63.00166 27.79816 312 ft 21 kts 317°
2026-05-07 15:04 63.00237 27.79583 309 ft 10 kts 263°
2026-05-07 15:04 63.00203 27.79391 312 ft 13 kts 247°
2026-05-07 15:04 63.00227 27.79278 312 ft 0 kts 322°
2026-05-07 15:04 63.00226 27.79230 313 ft 4 kts 225°
2026-05-07 15:05 63.00220 27.79201 313 ft 0 kts 251°